Terminal Aerodrome Forecast
Issued by NWS

Home | Current Version | Previous Version | Text Only | Print | Product List | Glossary On
Versions: 1 2 3 4 5 6 7 8 9 10 11 12 13 14 15 16 17 18 19 20 21 22 23 24 25 26 27 28 29 30
000
FTUS43 KDDC 010623 AAA
TAFHYS
TAF AMD
KHYS 010623Z 0106/0206 VRB05KT 3/4SM BR OVC002
     FM011000 VRB05KT 2SM BR OVC002
     FM011400 02010KT P6SM SCT090=

USA.gov is the U.S. government's official web portal to all federal, state and local government web resources and services.